Time;durP1;ratioP1;P1;durP2;ratioP2;P2;SDS_P1;SDS_P2;PMS_P1;PMS_P2;Temp;Humidity;BMP_temperature;BMP_pressure;BME280_temperature;BME280_humidity;BME280_pressure;Samples;Min_cycle;Max_cycle;Signal;HPM_P1;HPM_P2
2021/03/03 00:02:24;;;;;;;16.67;10.05;;;9.60;66.90;;;;;;5114927;28;20039;-74
2021/03/03 00:04:50;;;;;;;16.58;10.32;;;9.60;66.90;;;;;;5096480;28;20028;-74
2021/03/03 00:07:16;;;;;;;19.13;11.43;;;9.60;66.90;;;;;;5096471;28;20445;-73
2021/03/03 00:09:42;;;;;;;17.92;10.77;;;9.60;67.00;;;;;;5096450;28;20591;-75
2021/03/03 00:12:09;;;;;;;20.55;10.98;;;9.50;67.00;;;;;;5114669;28;20023;-73
2021/03/03 00:14:36;;;;;;;20.58;10.95;;;9.50;67.10;;;;;;5096499;28;20111;-74
2021/03/03 00:17:03;;;;;;;21.83;10.80;;;9.50;67.20;;;;;;5111637;28;20395;-74
2021/03/03 00:19:28;;;;;;;17.67;10.52;;;9.50;67.20;;;;;;5096353;28;20024;-73
2021/03/03 00:21:54;;;;;;;20.45;11.20;;;9.40;67.30;;;;;;5096305;28;20039;-74
2021/03/03 00:24:19;;;;;;;18.98;10.82;;;9.40;67.30;;;;;;5096535;28;20130;-74
2021/03/03 00:26:45;;;;;;;19.77;11.15;;;9.40;67.40;;;;;;5114652;28;20156;-74
2021/03/03 00:29:11;;;;;;;20.17;11.05;;;9.40;67.50;;;;;;5096215;28;20034;-74
2021/03/03 00:31:36;;;;;;;21.85;11.52;;;9.40;67.60;;;;;;5096132;28;20027;-75
2021/03/03 00:34:02;;;;;;;21.48;11.43;;;9.30;67.60;;;;;;5114992;28;20070;-75
2021/03/03 00:36:28;;;;;;;19.42;11.10;;;9.30;67.60;;;;;;5114344;28;20024;-73
2021/03/03 00:38:53;;;;;;;18.52;11.02;;;9.20;67.60;;;;;;5096021;28;20126;-73
2021/03/03 00:41:19;;;;;;;21.83;10.75;;;9.20;67.70;;;;;;5114096;28;20027;-74
2021/03/03 00:43:44;;;;;;;19.45;11.13;;;9.20;67.80;;;;;;5095504;28;20044;-74
2021/03/03 00:46:11;;;;;;;16.90;10.73;;;9.10;67.90;;;;;;5095749;28;20072;-73
2021/03/03 00:48:37;;;;;;;19.85;11.07;;;9.10;68.00;;;;;;5114382;28;20030;-73
2021/03/03 00:51:03;;;;;;;21.52;10.75;;;9.10;68.00;;;;;;5095435;28;20015;-74
2021/03/03 00:53:29;;;;;;;19.10;11.07;;;9.10;68.10;;;;;;5113713;28;20084;-73
2021/03/03 00:55:55;;;;;;;20.75;10.52;;;9.10;68.20;;;;;;5114083;28;20062;-73
2021/03/03 00:58:21;;;;;;;21.40;11.25;;;9.10;68.90;;;;;;5114176;28;20034;-73
2021/03/03 01:00:47;;;;;;;18.33;10.73;;;9.10;68.30;;;;;;5113740;28;20024;-73
2021/03/03 01:03:13;;;;;;;15.90;10.52;;;9.00;68.30;;;;;;5095415;28;20049;-73
2021/03/03 01:05:40;;;;;;;19.48;11.40;;;9.00;68.30;;;;;;5095379;28;20032;-73
2021/03/03 01:08:06;;;;;;;17.80;10.93;;;9.00;68.40;;;;;;5113877;28;20051;-73
2021/03/03 01:10:31;;;;;;;19.80;11.20;;;9.00;68.50;;;;;;5114251;28;20080;-73
2021/03/03 01:12:57;;;;;;;19.02;11.23;;;8.90;68.50;;;;;;5113540;28;20031;-73
2021/03/03 01:15:23;;;;;;;21.20;11.05;;;8.90;68.50;;;;;;5095222;28;20028;-74
2021/03/03 01:17:48;;;;;;;21.40;11.00;;;8.90;68.60;;;;;;5095165;28;20098;-74
2021/03/03 01:20:14;;;;;;;19.08;10.98;;;8.90;68.60;;;;;;5095143;28;20356;-74
2021/03/03 01:22:40;;;;;;;21.67;11.63;;;8.90;68.70;;;;;;5113391;28;20032;-74
2021/03/03 01:25:07;;;;;;;20.95;11.65;;;8.80;68.70;;;;;;5113693;28;20102;-74
2021/03/03 01:27:32;;;;;;;19.27;11.10;;;8.80;68.80;;;;;;5113396;28;20079;-74
2021/03/03 01:29:58;;;;;;;18.95;11.38;;;8.80;68.90;;;;;;5113282;28;20031;-74
2021/03/03 01:32:24;;;;;;;21.27;10.50;;;8.70;68.90;;;;;;5113415;28;20035;-73
2021/03/03 01:34:49;;;;;;;19.65;10.82;;;8.70;69.10;;;;;;5094828;28;20467;-74
2021/03/03 01:37:15;;;;;;;21.27;10.52;;;8.70;69.10;;;;;;5113420;28;20027;-73
2021/03/03 01:39:41;;;;;;;17.70;11.00;;;8.60;69.10;;;;;;5095107;28;20028;-74
2021/03/03 01:42:07;;;;;;;21.70;11.57;;;8.60;69.20;;;;;;5095014;28;20467;-73
2021/03/03 01:44:32;;;;;;;21.27;11.43;;;8.60;69.20;;;;;;5112903;28;20059;-74
2021/03/03 01:46:58;;;;;;;22.67;11.50;;;8.60;69.30;;;;;;5113184;28;20050;-72
2021/03/03 01:49:23;;;;;;;22.80;11.93;;;8.50;69.30;;;;;;5094678;28;20130;-72
2021/03/03 01:51:49;;;;;;;21.85;12.13;;;8.50;69.40;;;;;;5113131;28;20042;-73
2021/03/03 01:54:15;;;;;;;19.48;10.82;;;8.50;69.60;;;;;;5112839;28;20024;-73
2021/03/03 01:56:41;;;;;;;17.77;10.82;;;8.40;69.60;;;;;;5094695;28;20024;-73
2021/03/03 01:59:06;;;;;;;19.58;11.38;;;8.40;69.70;;;;;;5113374;28;20376;-74
2021/03/03 02:01:32;;;;;;;20.63;11.70;;;8.40;69.80;;;;;;5113143;28;20063;-75
2021/03/03 02:03:58;;;;;;;19.25;10.70;;;8.40;69.90;;;;;;5097527;28;20111;-75
2021/03/03 02:06:48;;;;;;;19.08;11.20;;;8.30;69.90;;;;;;5098888;28;20020;-74
2021/03/03 02:09:31;;;;;;;18.77;11.20;;;8.30;70.00;;;;;;5098832;28;20492;-74
2021/03/03 02:12:13;;;;;;;21.55;11.32;;;8.30;70.20;;;;;;5098523;28;20027;-74
2021/03/03 02:14:46;;;;;;;18.30;10.57;;;8.20;70.20;;;;;;5117025;28;20020;-74
2021/03/03 02:17:12;;;;;;;22.60;11.77;;;8.20;70.20;;;;;;5117169;28;20048;-74
2021/03/03 02:19:40;;;;;;;18.13;10.55;;;8.20;70.20;;;;;;5098728;28;20411;-74
2021/03/03 02:22:39;;;;;;;20.50;11.10;;;8.20;70.30;;;;;;5098731;28;20039;-74
2021/03/03 02:25:28;;;;;;;16.08;10.18;;;8.20;70.40;;;;;;5116764;28;20036;-74
2021/03/03 02:27:56;;;;;;;20.23;10.98;;;8.20;70.40;;;;;;5098177;28;20431;-74
2021/03/03 02:30:23;;;;;;;20.63;11.13;;;8.10;70.40;;;;;;5097981;28;20032;-74
2021/03/03 02:32:50;;;;;;;19.75;10.82;;;8.10;70.50;;;;;;5097785;28;20032;-74
2021/03/03 02:35:17;;;;;;;20.15;12.10;;;8.10;70.60;;;;;;5097875;28;20432;-74
2021/03/03 02:37:43;;;;;;;19.88;11.07;;;8.10;70.60;;;;;;5097995;28;20032;-75
2021/03/03 02:40:12;;;;;;;23.30;11.20;;;8.10;70.70;;;;;;5097891;28;20020;-75
2021/03/03 02:42:39;;;;;;;18.17;10.65;;;8.10;70.80;;;;;;5098149;28;20024;-74
2021/03/03 02:45:11;;;;;;;21.55;11.30;;;8.00;70.80;;;;;;5097968;28;20027;-74
2021/03/03 02:47:38;;;;;;;17.60;11.00;;;8.00;70.90;;;;;;5097765;28;20036;-74
2021/03/03 02:50:06;;;;;;;22.25;11.50;;;8.00;71.00;;;;;;5097789;28;20080;-75
2021/03/03 02:52:49;;;;;;;19.20;11.20;;;8.00;71.10;;;;;;5097471;28;20462;-74
2021/03/03 02:55:15;;;;;;;18.58;11.23;;;8.00;71.20;;;;;;5097376;28;20023;-74
2021/03/03 02:57:42;;;;;;;20.98;11.57;;;8.00;71.20;;;;;;5097447;28;20383;-74
2021/03/03 03:00:12;;;;;;;20.40;11.63;;;7.90;71.10;;;;;;5115994;28;20095;-74
2021/03/03 03:02:40;;;;;;;18.13;10.50;;;7.90;71.20;;;;;;5115840;28;20394;-74
2021/03/03 03:05:07;;;;;;;19.15;10.10;;;7.90;71.30;;;;;;5097481;28;20530;-74
2021/03/03 03:07:39;;;;;;;21.30;11.57;;;7.90;71.40;;;;;;5097328;28;20027;-74
2021/03/03 03:10:09;;;;;;;19.13;10.73;;;7.80;71.40;;;;;;5115713;28;20081;-74
2021/03/03 03:12:36;;;;;;;18.33;11.05;;;7.80;71.50;;;;;;5115668;28;20100;-74
2021/03/03 03:15:04;;;;;;;17.75;11.13;;;7.80;71.50;;;;;;5097040;28;20030;-74
2021/03/03 03:17:30;;;;;;;19.17;11.55;;;7.80;71.60;;;;;;5115597;28;20053;-74
2021/03/03 03:19:58;;;;;;;19.52;11.23;;;7.80;71.60;;;;;;5096959;28;20027;-74
2021/03/03 03:22:27;;;;;;;19.63;10.77;;;7.80;71.70;;;;;;5097162;28;20546;-74
2021/03/03 03:24:58;;;;;;;21.42;12.07;;;7.80;71.70;;;;;;5097033;28;20039;-74
2021/03/03 03:27:26;;;;;;;17.98;10.18;;;7.80;71.80;;;;;;5115338;28;20447;-74
2021/03/03 03:29:52;;;;;;;21.25;11.38;;;7.80;71.90;;;;;;5097045;28;20024;-74
2021/03/03 03:32:19;;;;;;;21.00;11.73;;;7.70;71.90;;;;;;5096675;28;20032;-74
2021/03/03 03:34:45;;;;;;;21.83;11.27;;;7.80;72.00;;;;;;5115199;28;20419;-74
2021/03/03 03:37:13;;;;;;;18.85;11.38;;;7.70;72.00;;;;;;5115146;28;20036;-74
2021/03/03 03:39:39;;;;;;;17.98;11.10;;;7.70;72.00;;;;;;5115595;28;20028;-74
2021/03/03 03:42:07;;;;;;;19.95;11.02;;;7.70;72.00;;;;;;5096827;28;20028;-75
2021/03/03 03:44:33;;;;;;;18.15;11.65;;;7.70;72.20;;;;;;5096743;28;20038;-74
2021/03/03 03:46:59;;;;;;;21.73;10.82;;;7.70;72.20;;;;;;5096884;28;20034;-74
2021/03/03 03:49:26;;;;;;;19.90;11.52;;;7.70;72.30;;;;;;5114934;28;20039;-74
2021/03/03 03:51:52;;;;;;;19.23;11.43;;;7.70;72.30;;;;;;5114851;28;20441;-75
2021/03/03 03:54:18;;;;;;;21.38;11.10;;;7.60;72.30;;;;;;5096332;28;20027;-74
2021/03/03 03:56:43;;;;;;;18.33;10.98;;;7.60;72.40;;;;;;5114778;28;20024;-74
2021/03/03 03:59:09;;;;;;;19.52;10.98;;;7.60;72.50;;;;;;5114855;28;20020;-74
2021/03/03 04:01:35;;;;;;;19.20;11.30;;;7.60;72.50;;;;;;5096500;28;20382;-74
2021/03/03 04:04:01;;;;;;;22.33;11.35;;;7.60;72.60;;;;;;5114720;28;20032;-74
2021/03/03 04:06:26;;;;;;;19.70;10.77;;;7.60;72.60;;;;;;5114607;28;20470;-74
2021/03/03 04:08:52;;;;;;;23.02;11.80;;;7.50;72.60;;;;;;5114578;28;20042;-74
2021/03/03 04:11:17;;;;;;;24.75;11.57;;;7.50;72.70;;;;;;5096186;28;20047;-74
2021/03/03 04:13:43;;;;;;;18.65;11.07;;;7.50;72.70;;;;;;5096325;28;20031;-75
2021/03/03 04:16:09;;;;;;;18.73;11.93;;;7.50;72.80;;;;;;5096439;28;20486;-74
2021/03/03 04:18:34;;;;;;;20.73;11.40;;;7.50;72.80;;;;;;5096551;28;20428;-74
2021/03/03 04:21:00;;;;;;;19.98;11.30;;;7.50;72.80;;;;;;5096298;28;20032;-74
2021/03/03 04:23:26;;;;;;;21.70;11.13;;;7.50;72.90;;;;;;5114911;28;20486;-74
2021/03/03 04:25:51;;;;;;;17.48;11.20;;;7.50;73.00;;;;;;5113603;28;20043;-74
2021/03/03 04:28:17;;;;;;;20.88;11.35;;;7.40;73.00;;;;;;5114284;28;20024;-74
2021/03/03 04:30:42;;;;;;;18.33;11.38;;;7.40;73.00;;;;;;5095961;28;20032;-74
2021/03/03 04:33:09;;;;;;;20.65;11.10;;;7.40;73.10;;;;;;5095797;28;20032;-74
2021/03/03 04:35:35;;;;;;;18.27;11.32;;;7.40;73.10;;;;;;5095766;28;20019;-74
2021/03/03 04:38:00;;;;;;;20.58;11.80;;;7.40;73.10;;;;;;5114264;28;20035;-74
2021/03/03 04:40:26;;;;;;;19.70;11.27;;;7.40;73.10;;;;;;5114234;28;20042;-74
2021/03/03 04:42:52;;;;;;;19.73;12.40;;;7.40;73.80;;;;;;5114020;28;20458;-74
2021/03/03 04:45:18;;;;;;;22.67;11.65;;;7.40;73.20;;;;;;5113866;28;20082;-74
2021/03/03 04:47:43;;;;;;;18.38;10.65;;;7.40;73.20;;;;;;5113796;28;20491;-72
2021/03/03 04:50:10;;;;;;;21.02;12.15;;;7.40;73.20;;;;;;5113895;28;20035;-73
2021/03/03 04:52:36;;;;;;;18.55;11.50;;;7.40;73.20;;;;;;5114011;28;20035;-73
2021/03/03 04:55:03;;;;;;;20.05;11.43;;;7.40;73.40;;;;;;5095313;28;20023;-73
2021/03/03 04:57:29;;;;;;;21.75;12.05;;;7.40;73.40;;;;;;5113848;28;20042;-73
2021/03/03 04:59:55;;;;;;;18.30;11.10;;;7.40;73.40;;;;;;5095359;28;20027;-73
2021/03/03 05:02:20;;;;;;;20.15;11.73;;;7.40;73.40;;;;;;5095144;28;20034;-73
2021/03/03 05:04:46;;;;;;;24.00;11.18;;;7.40;73.40;;;;;;5113851;28;20171;-73
2021/03/03 05:07:13;;;;;;;23.42;10.88;;;7.40;73.40;;;;;;5113603;28;20035;-73
2021/03/03 05:09:38;;;;;;;22.73;10.85;;;7.40;73.50;;;;;;5095581;28;20067;-73
2021/03/03 05:12:04;;;;;;;21.83;11.63;;;7.40;73.50;;;;;;5094965;28;20024;-73
2021/03/03 05:14:30;;;;;;;23.90;12.75;;;7.40;73.60;;;;;;5113918;28;20491;-73
2021/03/03 05:16:56;;;;;;;21.73;12.13;;;7.30;73.60;;;;;;5095198;28;20024;-73
2021/03/03 05:19:21;;;;;;;19.30;11.75;;;7.30;73.70;;;;;;5095221;28;20475;-74
2021/03/03 05:21:47;;;;;;;18.25;11.30;;;7.30;73.80;;;;;;5113464;28;20038;-74
2021/03/03 05:24:13;;;;;;;21.55;11.52;;;7.30;73.90;;;;;;5113306;28;20038;-73
2021/03/03 05:26:39;;;;;;;23.88;12.13;;;7.30;73.90;;;;;;5113281;28;20106;-74
2021/03/03 05:29:04;;;;;;;17.88;11.30;;;7.30;73.90;;;;;;5113434;28;20036;-73
2021/03/03 05:31:30;;;;;;;24.25;11.23;;;7.30;73.90;;;;;;5094882;28;20068;-74
2021/03/03 05:33:56;;;;;;;22.40;11.93;;;7.40;74.00;;;;;;5113330;28;20125;-73
2021/03/03 05:36:21;;;;;;;20.80;11.63;;;7.30;74.00;;;;;;5113307;28;20034;-74
2021/03/03 05:38:47;;;;;;;20.17;11.77;;;7.40;74.00;;;;;;5094481;28;20028;-74
2021/03/03 05:41:13;;;;;;;22.08;11.63;;;7.40;74.00;;;;;;5094647;28;20019;-73
2021/03/03 05:43:39;;;;;;;21.92;11.93;;;7.40;74.00;;;;;;5112689;28;20131;-74
2021/03/03 05:46:05;;;;;;;19.88;11.10;;;7.40;74.00;;;;;;5113201;28;20085;-74
2021/03/03 05:48:49;;;;;;;19.60;12.27;;;7.40;74.10;;;;;;5094646;28;20028;-74
2021/03/03 05:51:15;;;;;;;24.27;11.68;;;7.40;74.10;;;;;;5094849;28;20042;-73
2021/03/03 05:53:41;;;;;;;19.92;11.20;;;7.40;74.10;;;;;;5094491;28;20024;-74
2021/03/03 05:56:09;;;;;;;20.98;11.30;;;7.30;74.10;;;;;;5094814;28;20535;-74
2021/03/03 05:58:37;;;;;;;21.50;11.77;;;7.40;74.20;;;;;;5094415;28;20032;-74
2021/03/03 06:01:08;;;;;;;18.45;11.35;;;7.30;74.20;;;;;;5112987;28;20042;-74
2021/03/03 06:03:34;;;;;;;20.75;11.63;;;7.30;74.20;;;;;;5094511;28;20436;-74
2021/03/03 06:06:00;;;;;;;19.85;11.40;;;7.30;74.30;;;;;;5094444;28;20110;-74
2021/03/03 06:08:28;;;;;;;22.17;11.73;;;7.30;74.30;;;;;;5094515;28;20510;-71
2021/03/03 06:10:54;;;;;;;23.10;11.93;;;7.30;74.40;;;;;;5094219;28;20023;-71
2021/03/03 06:13:20;;;;;;;21.27;12.25;;;7.30;74.40;;;;;;5112662;28;20517;-72
2021/03/03 06:15:46;;;;;;;22.98;12.27;;;7.30;74.50;;;;;;5112688;28;20020;-71
2021/03/03 06:18:14;;;;;;;22.15;11.82;;;7.30;74.50;;;;;;5094755;28;20479;-71
2021/03/03 06:20:42;;;;;;;24.30;12.95;;;7.30;74.60;;;;;;5112299;28;20028;-72
2021/03/03 06:23:22;;;;;;;25.98;13.20;;;7.30;74.60;;;;;;5094094;28;20031;-71
2021/03/03 06:26:07;;;;;;;19.63;11.77;;;7.30;74.60;;;;;;5094243;28;20031;-71
2021/03/03 06:28:41;;;;;;;21.65;11.32;;;7.30;74.60;;;;;;5112436;28;20027;-72
2021/03/03 06:31:26;;;;;;;24.65;13.45;;;7.30;74.60;;;;;;5112301;28;20035;-71
2021/03/03 06:33:54;;;;;;;25.08;14.18;;;7.30;74.60;;;;;;5112724;28;20062;-71
2021/03/03 06:36:26;;;;;;;22.52;13.38;;;7.30;74.60;;;;;;5093877;28;20028;-72
2021/03/03 06:38:53;;;;;;;25.35;13.57;;;7.30;74.60;;;;;;5112306;28;20095;-71
2021/03/03 06:41:19;;;;;;;23.33;13.07;;;7.30;74.60;;;;;;5113003;28;20157;-71
2021/03/03 06:43:55;;;;;;;24.00;13.35;;;7.40;74.60;;;;;;5093734;28;20130;-71
2021/03/03 06:46:21;;;;;;;21.95;12.73;;;7.40;74.60;;;;;;5112386;28;20084;-71
2021/03/03 06:48:47;;;;;;;24.02;13.27;;;7.40;74.50;;;;;;5094258;28;20488;-71
2021/03/03 06:51:47;;;;;;;20.80;12.45;;;7.40;74.50;;;;;;5115888;28;20099;-71
2021/03/03 06:54:19;;;;;;;26.58;13.75;;;7.50;74.50;;;;;;5054572;28;20499;-73
2021/03/03 06:56:46;;;;;;;22.48;12.95;;;7.50;74.40;;;;;;5116088;28;20023;-71
2021/03/03 06:59:17;;;;;;;23.83;13.38;;;7.50;74.40;;;;;;5097804;28;20121;-71
2021/03/03 07:01:45;;;;;;;21.75;12.70;;;7.50;74.30;;;;;;5116387;28;20420;-71
2021/03/03 07:04:38;;;;;;;21.50;12.98;;;7.60;74.40;;;;;;5097595;28;20020;-71
2021/03/03 07:07:13;;;;;;;21.52;12.45;;;7.70;74.40;;;;;;5094246;28;20047;-72
2021/03/03 07:09:52;;;;;;;21.40;12.65;;;7.70;74.30;;;;;;5116149;28;20024;-71
2021/03/03 07:12:25;;;;;;;21.02;12.30;;;7.70;74.30;;;;;;5097432;28;20042;-72
2021/03/03 07:14:55;;;;;;;;;;;7.80;74.30;;;;;;5097861;28;20072;-72
2021/03/03 07:17:22;;;;;;;18.77;11.07;;;7.90;74.20;;;;;;5115900;28;20375;-72
2021/03/03 07:20:18;;;;;;;21.23;12.30;;;7.90;74.00;;;;;;5097274;28;20388;-71
2021/03/03 07:22:56;;;;;;;22.10;11.88;;;7.90;73.90;;;;;;5096272;28;20042;-71
2021/03/03 07:25:22;;;;;;;21.98;11.85;;;8.00;73.90;;;;;;5115320;28;20031;-71
2021/03/03 07:27:48;;;;;;;23.42;12.45;;;8.10;73.80;;;;;;5115917;28;20042;-71
2021/03/03 07:30:19;;;;;;;21.75;11.90;;;8.10;73.70;;;;;;5115146;28;20035;-71
2021/03/03 07:32:46;;;;;;;22.48;13.52;;;8.20;73.70;;;;;;5115096;28;20024;-71
2021/03/03 07:35:13;;;;;;;22.38;12.88;;;8.20;73.50;;;;;;5096805;28;20047;-71
2021/03/03 07:37:51;;;;;;;22.65;12.15;;;8.30;73.50;;;;;;5115227;28;20031;-72
2021/03/03 07:40:18;;;;;;;22.45;13.02;;;8.30;73.40;;;;;;5115172;28;20016;-72
2021/03/03 07:42:53;;;;;;;21.27;12.85;;;8.40;73.30;;;;;;5114964;28;20483;-71
2021/03/03 07:45:19;;;;;;;25.17;13.63;;;8.50;73.20;;;;;;5097017;28;20046;-71
2021/03/03 07:47:45;;;;;;;27.33;13.10;;;8.50;73.10;;;;;;5096539;28;20567;-72
2021/03/03 07:50:14;;;;;;;25.92;13.52;;;8.50;73.00;;;;;;5115315;28;20080;-72
2021/03/03 07:52:55;;;;;;;24.30;13.68;;;8.60;72.90;;;;;;5114909;28;20038;-72
2021/03/03 07:55:22;;;;;;;26.13;14.13;;;8.70;72.80;;;;;;5115186;28;20416;-72
2021/03/03 07:57:56;;;;;;;22.70;13.15;;;8.80;72.60;;;;;;5096474;28;20491;-73
2021/03/03 08:00:28;;;;;;;25.50;14.60;;;8.80;72.60;;;;;;5095526;28;20016;-72
2021/03/03 08:02:55;;;;;;;23.90;14.32;;;8.80;72.50;;;;;;5114592;28;20390;-72
2021/03/03 08:05:38;;;;;;;24.73;14.57;;;8.80;72.40;;;;;;5096233;28;20024;-72
2021/03/03 08:08:26;;;;;;;24.27;14.40;;;8.90;72.40;;;;;;5114737;28;20028;-70
2021/03/03 08:10:58;;;;;;;22.13;14.32;;;8.90;72.30;;;;;;5096322;28;20030;-71
2021/03/03 08:13:34;;;;;;;27.00;15.98;;;9.00;72.30;;;;;;5096121;28;20146;-72
2021/03/03 08:16:05;;;;;;;27.45;15.05;;;9.00;72.20;;;;;;5114550;28;20034;-72
2021/03/03 08:18:33;;;;;;;34.00;16.85;;;9.00;72.20;;;;;;5096025;28;20050;-72
2021/03/03 08:21:08;;;;;;;29.05;15.27;;;9.00;72.20;;;;;;5114483;28;20099;-70
2021/03/03 08:23:33;;;;;;;24.83;15.48;;;9.10;72.20;;;;;;5096156;28;20339;-72
2021/03/03 08:26:32;;;;;;;30.45;16.35;;;9.20;72.10;;;;;;5096177;28;20023;-72
2021/03/03 08:29:19;;;;;;;35.15;16.55;;;9.20;71.90;;;;;;5114174;28;20065;-72
2021/03/03 08:31:44;;;;;;;29.00;16.52;;;9.30;71.80;;;;;;5095715;28;20057;-72
2021/03/03 08:34:10;;;;;;;30.08;16.90;;;9.30;71.80;;;;;;5095773;28;20054;-72
2021/03/03 08:36:37;;;;;;;34.50;18.13;;;9.30;71.70;;;;;;5095866;28;20020;-73
2021/03/03 08:39:02;;;;;;;29.30;17.38;;;9.40;71.60;;;;;;5095828;28;20494;-73
2021/03/03 08:41:35;;;;;;;29.45;17.77;;;9.40;71.60;;;;;;5114031;28;20092;-73
2021/03/03 08:44:09;;;;;;;26.10;16.63;;;9.50;71.60;;;;;;5114111;28;20398;-70
2021/03/03 08:46:41;;;;;;;30.80;17.92;;;9.50;71.60;;;;;;5113900;28;20098;-73
2021/03/03 08:49:06;;;;;;;29.05;17.92;;;9.50;71.60;;;;;;5113971;28;20022;-72
2021/03/03 08:51:46;;;;;;;28.15;18.50;;;9.50;71.60;;;;;;5113784;28;20024;-73
2021/03/03 08:54:16;;;;;;;27.27;17.98;;;9.50;71.70;;;;;;5113821;28;20027;-72
2021/03/03 08:56:52;;;;;;;24.92;16.33;;;9.50;71.80;;;;;;5113786;28;20475;-71
2021/03/03 08:59:42;;;;;;;31.90;18.05;;;9.50;71.80;;;;;;5095507;28;20045;-72
2021/03/03 09:02:12;;;;;;;30.52;16.80;;;9.50;71.80;;;;;;5095262;28;20421;-72
2021/03/03 09:04:51;;;;;;;31.20;17.15;;;9.60;71.90;;;;;;5113809;28;20016;-72
2021/03/03 09:07:24;;;;;;;26.55;17.23;;;9.60;71.90;;;;;;5113786;28;20027;-80
2021/03/03 09:09:52;;;;;;;26.92;16.80;;;9.60;71.90;;;;;;5095680;28;20024;-72
2021/03/03 09:12:21;;;;;;;28.63;16.00;;;9.70;71.80;;;;;;5113847;28;20038;-78
2021/03/03 09:14:48;;;;;;;25.63;15.35;;;9.70;71.70;;;;;;5095210;28;20057;-73
2021/03/03 09:17:26;;;;;;;28.83;15.35;;;9.80;71.70;;;;;;5095249;28;20026;-71
2021/03/03 09:20:00;;;;;;;23.52;14.65;;;9.90;71.60;;;;;;5113643;28;20490;-73
2021/03/03 09:22:27;;;;;;;26.20;17.00;;;10.00;71.60;;;;;;5095787;28;20026;-80
2021/03/03 09:24:56;;;;;;;28.75;16.35;;;10.10;71.40;;;;;;5094977;28;20034;-73
2021/03/03 09:27:25;;;;;;;37.58;18.45;;;10.20;71.40;;;;;;5113336;28;20522;-72
2021/03/03 09:29:51;;;;;;;24.88;16.50;;;10.30;71.20;;;;;;5113472;28;20066;-73
2021/03/03 09:32:22;;;;;;;26.85;17.10;;;10.40;71.00;;;;;;5113446;28;20059;-72
2021/03/03 09:34:49;;;;;;;29.50;18.05;;;10.50;71.00;;;;;;5095401;28;20103;-73
2021/03/03 09:37:16;;;;;;;28.40;17.23;;;10.50;70.80;;;;;;5094817;28;20024;-73
2021/03/03 09:39:49;;;;;;;31.20;19.05;;;10.60;70.70;;;;;;5113773;28;20011;-75
2021/03/03 09:42:15;;;;;;;31.08;18.02;;;10.70;70.60;;;;;;5095674;28;20489;-73
2021/03/03 09:44:47;;;;;;;28.60;17.30;;;10.80;70.50;;;;;;5094609;28;20122;-74
2021/03/03 09:47:21;;;;;;;28.38;17.45;;;10.90;70.50;;;;;;5094475;28;20061;-72
2021/03/03 09:49:47;;;;;;;26.98;16.90;;;10.90;70.40;;;;;;5094497;28;20053;-73
2021/03/03 09:52:12;;;;;;;30.02;18.48;;;11.00;70.50;;;;;;5112605;28;20036;-73
2021/03/03 09:54:38;;;;;;;30.33;17.83;;;11.10;70.40;;;;;;5113085;28;20035;-72
2021/03/03 09:57:10;;;;;;;32.05;17.63;;;11.10;70.30;;;;;;5113205;28;20035;-73
2021/03/03 09:59:39;;;;;;;30.88;18.83;;;11.10;70.30;;;;;;5095519;28;20041;-73
2021/03/03 10:02:07;;;;;;;31.50;18.23;;;11.20;70.30;;;;;;5094638;28;20383;-75
2021/03/03 10:04:36;;;;;;;32.20;19.15;;;11.10;70.20;;;;;;5094591;28;20032;-73
2021/03/03 10:07:01;;;;;;;31.80;20.17;;;11.20;70.30;;;;;;5094489;28;20051;-73
2021/03/03 10:09:27;;;;;;;32.45;19.33;;;11.20;70.30;;;;;;5094841;28;20126;-73
2021/03/03 10:11:53;;;;;;;31.60;19.23;;;11.20;70.30;;;;;;5112631;28;20478;-73
2021/03/03 10:14:19;;;;;;;29.92;19.75;;;11.30;70.30;;;;;;5094639;28;20100;-72
2021/03/03 10:17:03;;;;;;;29.63;19.55;;;11.30;70.20;;;;;;5112990;28;20479;-73
2021/03/03 10:19:28;;;;;;;29.38;18.90;;;11.40;70.20;;;;;;5094512;28;20088;-74
2021/03/03 10:21:54;;;;;;;30.45;18.73;;;11.40;70.20;;;;;;5094456;28;20023;-74
2021/03/03 10:24:22;;;;;;;35.25;19.60;;;11.50;70.10;;;;;;5114263;28;20084;-74
2021/03/03 10:26:50;;;;;;;32.35;19.33;;;11.50;70.00;;;;;;5116626;28;20054;-74
2021/03/03 10:29:39;;;;;;;29.98;18.63;;;11.60;70.00;;;;;;5098070;28;20106;-74
2021/03/03 10:32:12;;;;;;;30.58;18.55;;;11.60;70.00;;;;;;5098109;28;20387;-75
2021/03/03 10:34:39;;;;;;;33.17;19.42;;;11.80;69.90;;;;;;5116638;28;20031;-74
2021/03/03 10:37:04;;;;;;;33.60;19.67;;;11.80;69.80;;;;;;5116688;28;20098;-74
2021/03/03 10:39:31;;;;;;;31.10;19.88;;;11.90;69.70;;;;;;5098154;28;20054;-74
2021/03/03 10:42:05;;;;;;;33.28;20.48;;;12.00;69.60;;;;;;5098113;28;20482;-77
2021/03/03 10:44:38;;;;;;;29.27;19.25;;;12.10;69.50;;;;;;5117846;28;20059;-80
2021/03/03 10:47:04;;;;;;;;;;;12.10;69.30;;;;;;5098931;28;20494;-77
2021/03/03 10:49:29;;;;;;;30.85;18.77;;;12.30;69.20;;;;;;5097951;28;19912;-76
2021/03/03 10:51:55;;;;;;;32.15;19.77;;;12.40;69.10;;;;;;5097659;28;20023;-73
2021/03/03 10:54:34;;;;;;;34.03;20.85;;;12.50;69.00;;;;;;5098429;28;20016;-73
2021/03/03 10:57:09;;;;;;;31.50;19.23;;;12.70;68.90;;;;;;5097431;28;20093;-73
2021/03/03 10:59:38;;;;;;;31.88;20.05;;;12.70;68.70;;;;;;5116077;28;20049;-73
2021/03/03 11:02:05;;;;;;;60.85;22.05;;;12.80;68.40;;;;;;5097832;28;20019;-74
2021/03/03 11:04:42;;;;;;;35.33;22.38;;;12.80;68.20;;;;;;5097606;28;20016;-74
2021/03/03 11:07:09;;;;;;;35.05;22.67;;;12.90;68.10;;;;;;5097766;28;20031;-72
2021/03/03 11:09:35;;;;;;;33.60;22.75;;;13.00;68.00;;;;;;5115980;28;20023;-72
2021/03/03 11:12:02;;;;;;;38.08;23.65;;;13.00;67.70;;;;;;5115766;28;20020;-73
2021/03/03 11:14:28;;;;;;;35.67;23.25;;;13.00;67.70;;;;;;5115827;28;20023;-74
2021/03/03 11:16:55;;;;;;;34.70;22.52;;;13.10;67.70;;;;;;5097895;28;20016;-73
2021/03/03 11:19:22;;;;;;;39.20;23.98;;;13.20;67.70;;;;;;5097622;28;20110;-73
2021/03/03 11:21:47;;;;;;;31.60;22.75;;;13.30;67.80;;;;;;5097372;28;20069;-74
2021/03/03 11:24:13;;;;;;;33.88;23.65;;;13.40;67.70;;;;;;5097507;28;20531;-74
2021/03/03 11:26:41;;;;;;;38.03;23.40;;;13.50;67.50;;;;;;5097422;28;20483;-75
2021/03/03 11:29:08;;;;;;;37.47;25.77;;;13.50;67.30;;;;;;5097403;28;20015;-74
2021/03/03 11:31:34;;;;;;;34.78;23.40;;;13.60;67.20;;;;;;5115380;28;20108;-73
2021/03/03 11:34:00;;;;;;;33.47;22.65;;;13.60;67.20;;;;;;5115379;28;20198;-73
2021/03/03 11:36:26;;;;;;;35.63;24.50;;;13.60;67.30;;;;;;5115076;28;20065;-73
2021/03/03 11:38:52;;;;;;;39.60;23.88;;;13.60;67.20;;;;;;5115132;28;20114;-72
2021/03/03 11:41:18;;;;;;;35.95;25.05;;;13.70;67.30;;;;;;5096649;28;20020;-71
2021/03/03 11:43:43;;;;;;;35.55;23.30;;;13.70;67.30;;;;;;5114930;28;20512;-72
2021/03/03 11:46:09;;;;;;;42.33;26.83;;;13.70;67.30;;;;;;5115237;28;20028;-74
2021/03/03 11:48:35;;;;;;;37.42;25.27;;;13.70;67.30;;;;;;5115562;28;20578;-73
2021/03/03 11:51:01;;;;;;;38.33;26.05;;;13.70;67.20;;;;;;5115528;28;20108;-73
2021/03/03 11:53:26;;;;;;;41.10;26.45;;;13.70;67.20;;;;;;5115209;28;20110;-73
2021/03/03 11:55:52;;;;;;;42.60;25.70;;;13.80;67.20;;;;;;5097212;28;20386;-72
2021/03/03 11:58:18;;;;;;;42.05;26.55;;;13.80;67.20;;;;;;5115685;28;20015;-72
2021/03/03 12:00:44;;;;;;;36.80;25.50;;;13.90;67.10;;;;;;5114975;28;20026;-71
2021/03/03 12:03:09;;;;;;;40.45;25.80;;;13.90;67.00;;;;;;5096679;28;20023;-74
2021/03/03 12:05:35;;;;;;;42.40;26.83;;;14.00;66.80;;;;;;5096831;28;20028;-74
2021/03/03 12:08:04;;;;;;;46.05;29.52;;;14.10;66.60;;;;;;5096431;28;20031;-74
2021/03/03 12:10:30;;;;;;;52.17;31.45;;;14.10;66.30;;;;;;5114847;28;20033;-76
2021/03/03 12:12:56;;;;;;;45.63;31.00;;;14.10;65.90;;;;;;5114724;28;20038;-74
2021/03/03 12:15:22;;;;;;;47.47;30.75;;;14.10;65.60;;;;;;5096189;28;20023;-74
2021/03/03 12:17:47;;;;;;;48.17;32.05;;;14.10;65.50;;;;;;5114500;28;20011;-74
2021/03/03 12:20:13;;;;;;;52.83;33.65;;;14.20;65.50;;;;;;5096260;28;20019;-74
2021/03/03 12:22:39;;;;;;;52.03;32.65;;;14.20;65.20;;;;;;5096142;28;20368;-74
2021/03/03 12:25:05;;;;;;;53.22;34.15;;;14.20;64.90;;;;;;5096289;28;20098;-75
2021/03/03 12:27:31;;;;;;;52.03;34.75;;;14.20;64.90;;;;;;5114647;28;20023;-74
2021/03/03 12:29:56;;;;;;;60.53;36.53;;;14.20;64.60;;;;;;5095912;28;20027;-73
2021/03/03 12:32:22;;;;;;;50.20;32.60;;;14.20;65.10;;;;;;5114193;28;20049;-74
2021/03/03 12:34:48;;;;;;;48.92;33.80;;;14.30;64.70;;;;;;5114552;28;20053;-73
2021/03/03 12:37:14;;;;;;;56.72;35.63;;;14.30;64.50;;;;;;5095607;28;20054;-73
2021/03/03 12:39:40;;;;;;;56.20;35.45;;;14.30;64.30;;;;;;5096080;28;20026;-73
2021/03/03 12:42:05;;;;;;;58.72;37.13;;;14.30;64.10;;;;;;5095767;28;20019;-74
2021/03/03 12:44:31;;;;;;;54.75;33.78;;;14.30;63.90;;;;;;5095725;28;20047;-72